Latest Weather Observations for Pound Creek

IDV60801

Issued at 11:52 am EST Tuesday 23 April 2024 (issued every 10 minutes, with the page automatically refreshed every 10 minutes)

About weather observations | Map of weather stations | Latest weather observations for VIC | Other Formats
Station Details ID: 085099 Name: POUND CREEK Lat: -38.63 Lon: 145.81 Height: 3.0 m
Data from the previous 72 hours. | See also: Recent months at Pound Creek
Date/Time
EST
Temp
°C
App
Temp
°C
Dew
Point
°C
Rel
Hum
%
Delta-T
°C
Wind Press
QNH
hPa
Press
MSL
hPa
Rain since
9am
mm
Dir  Spd
km/h
Gust
km/h
Spd
kts
Gust
kts
23/11:30am 22.4 17.8 8.1 40 7.5 NNW 22 35 12 19 1018.0 1018.0 0.0
23/11:00am 21.9 16.6 7.0 38 7.6 N 24 39 13 21 1018.4 1018.4 0.0
23/10:30am 21.7 17.3 7.2 39 7.5 N 20 32 11 17 1018.9 1018.9 0.0
23/10:00am 21.3 17.0 7.2 40 7.2 NNW 19 33 10 18 1019.2 1019.2 0.0
23/09:30am 19.8 16.1 7.9 46 6.1 NNW 17 24 9 13 1019.6 1019.6 0.0
23/09:00am 16.8 17.4 13.1 79 2.1 E 2 9 1 5 1020.1 1020.1 0.0
23/08:58am 16.2 17.2 13.3 83 1.6 CALM 0 4 0 2 1020.1 1020.1 0.0
23/08:30am 11.0 11.2 10.4 96 0.3 CALM 0 0 0 0 1020.5 1020.5 0.0
23/08:00am 9.1 8.8 8.8 98 0.1 CALM 0 0 0 0 1020.3 1020.3 0.0
23/07:30am 7.4 5.7 7.4 100 0.0 NNE 6 11 3 6 1020.3 1020.3 0.0
23/07:00am 5.9 4.2 5.9 100 0.0 NE 4 4 2 2 1020.4 1020.4 0.0
23/06:30am 5.4 4.3 5.1 98 0.1 CALM 0 2 0 1 1020.2 1020.2 0.0
23/06:00am 6.1 5.0 5.2 94 0.4 CALM 0 0 0 0 1020.1 1020.1 0.0
23/05:30am 8.3 6.4 6.8 90 0.7 N 6 7 3 4 1020.1 1020.1 0.0
23/05:00am 8.0 6.2 5.5 84 1.1 N 4 6 2 3 1020.0 1020.0 0.0
23/04:30am 10.5 8.6 6.8 78 1.7 N 6 9 3 5 1019.9 1019.9 0.0
23/04:00am 10.7 8.9 7.0 78 1.7 N 6 7 3 4 1020.2 1020.2 0.0
23/03:30am 11.8 9.8 7.3 74 2.2 N 7 11 4 6 1020.3 1020.3 0.0
23/03:00am 9.4 7.9 6.8 84 1.2 N 4 9 2 5 1020.4 1020.4 0.0
23/02:30am 11.7 9.9 7.0 73 2.2 N 6 7 3 4 1020.7 1020.7 0.0
23/02:00am 12.2 10.4 8.1 76 2.0 N 7 15 4 8 1020.9 1020.9 0.0
23/01:30am 11.1 9.5 8.1 82 1.5 N 6 7 3 4 1021.0 1021.0 0.0
23/01:00am 11.9 10.1 8.0 77 1.9 NNE 7 11 4 6 1021.2 1021.2 0.0
23/12:30am 12.4 10.4 8.7 78 1.8 NNE 9 13 5 7 1021.4 1021.4 0.0
23/12:00am 10.8 9.1 9.9 94 0.5 N 9 13 5 7 1021.6 1021.6 0.0
 
Date/Time
EST
Temp
°C
App
Temp
°C
Dew
Point
°C
Rel
Hum
%
Delta-T
°C
Wind Press
QNH
hPa
Press
MSL
hPa
Rain since
9am
mm
Dir  Spd
km/h
Gust
km/h
Spd
kts
Gust
kts
22/11:30pm 9.1 7.7 7.1 87 0.9 NNE 4 7 2 4 1021.9 1021.9 0.0
22/11:00pm 11.3 9.4 10.5 95 0.4 NNE 11 17 6 9 1021.9 1021.9 0.0
22/10:30pm 10.2 8.6 10.2 100 0.0 NNE 9 13 5 7 1022.2 1022.2 0.0
22/10:00pm 8.4 7.3 8.4 100 0.0 NNE 4 7 2 4 1022.6 1022.6 0.0
22/09:30pm 7.3 6.7 7.3 100 0.0 CALM 0 0 0 0 1022.7 1022.7 0.0
22/09:00pm 7.0 6.3 7.0 100 0.0 CALM 0 2 0 1 1022.9 1022.9 0.0
22/08:30pm 8.0 7.1 7.9 99 0.0 N 2 4 1 2 1022.8 1022.8 0.0
22/08:00pm 8.4 7.6 8.0 97 0.2 N 2 2 1 1 1023.0 1023.0 0.0
22/07:30pm 9.8 9.6 9.2 96 0.3 CALM 0 0 0 0 1023.2 1023.2 0.0
22/07:00pm 10.7 10.3 9.8 94 0.5 N 2 4 1 2 1023.3 1023.3 0.0
22/06:30pm 11.9 12.1 10.6 92 0.7 CALM 0 4 0 2 1023.2 1023.2 0.0
22/06:00pm 13.1 12.7 11.2 88 1.0 E 4 6 2 3 1023.1 1023.1 0.0
22/05:30pm 15.6 15.1 10.8 73 2.5 SSE 4 6 2 3 1023.2 1023.2 0.0
22/05:00pm 17.0 16.4 11.7 71 2.9 SSE 6 9 3 5 1023.2 1023.2 0.0
22/04:30pm 18.6 18.1 12.1 66 3.6 S 6 9 3 5 1023.2 1023.2 0.0
22/04:00pm 19.1 18.2 11.4 61 4.2 S 7 9 4 5 1023.3 1023.3 0.0
22/03:30pm 19.4 18.6 11.2 59 4.5 SW 6 9 3 5 1023.7 1023.7 0.0
22/03:00pm 18.8 18.1 12.1 65 3.7 SSW 7 9 4 5 1023.9 1023.9 0.0
22/02:30pm 18.7 17.2 12.0 65 3.7 SW 11 15 6 8 1023.9 1023.9 0.0
22/02:00pm 18.8 17.4 12.1 65 3.7 SW 11 17 6 9 1023.9 1023.9 0.0
22/01:30pm 19.4 17.6 12.2 63 4.0 W 13 20 7 11 1024.2 1024.2 0.0
22/01:00pm 19.8 17.6 9.4 51 5.5 NW 11 19 6 10 1024.7 1024.7 0.0
22/12:30pm 19.5 18.9 11.8 61 4.3 NNW 6 13 3 7 1025.3 1025.3 0.0
22/12:00pm 17.9 17.0 11.2 65 3.6 N 7 15 4 8 1026.0 1026.0 0.0
22/11:30am 17.4 16.7 11.4 68 3.3 NNE 6 9 3 5 1026.6 1026.6 0.0
22/11:00am 16.2 15.3 10.7 70 2.9 NNE 6 11 3 6 1026.9 1026.9 0.0
22/10:30am 15.6 14.4 10.4 71 2.7 NNE 7 9 4 5 1027.1 1027.1 0.0
22/10:00am 14.9 13.7 10.3 74 2.4 NNE 7 11 4 6 1027.4 1027.4 0.0
22/09:30am 14.1 12.6 10.7 80 1.8 NNE 9 13 5 7 1027.6 1027.6 0.0
22/09:00am 12.3 10.6 9.7 84 1.3 NNE 9 13 5 7 1027.9 1027.9 0.0
22/08:30am 11.4 10.7 10.0 91 0.7 NE 4 9 2 5 1027.9 1027.9 0.0
22/08:00am 9.7 8.5 9.4 98 0.1 NE 6 7 3 4 1027.8 1027.8 0.0
22/07:30am 7.8 6.0 7.8 100 0.0 NNE 7 9 4 5 1027.7 1027.7 0.0
22/07:00am 7.3 6.2 7.0 98 0.1 NNE 2 6 1 3 1027.4 1027.4 0.0
22/06:30am 8.1 7.2 7.7 97 0.2 NNE 2 7 1 4 1027.7 1027.7 0.0
22/06:00am 8.8 6.7 8.2 96 0.3 N 9 13 5 7 1027.6 1027.6 0.0
22/05:30am 9.3 7.3 8.5 95 0.4 N 9 13 5 7 1027.5 1027.5 0.0
22/05:00am 9.5 7.9 8.7 95 0.4 N 7 11 4 6 1027.3 1027.3 0.0
22/04:30am 9.9 8.9 9.0 94 0.4 NE 4 11 2 6 1027.1 1027.1 0.0
22/04:00am 10.1 8.7 9.5 96 0.3 NNE 7 9 4 5 1027.0 1027.0 0.0
22/03:30am 9.7 8.8 9.2 97 0.2 N 4 6 2 3 1027.2 1027.2 0.0
22/03:00am 9.6 8.1 9.0 96 0.3 N 7 11 4 6 1027.2 1027.2 0.0
22/02:30am 9.7 7.4 8.9 95 0.4 N 11 15 6 8 1027.6 1027.6 0.0
22/02:00am 10.1 8.1 8.7 91 0.7 N 9 13 5 7 1027.8 1027.8 0.0
22/01:30am 11.8 10.6 9.7 87 1.1 N 6 6 3 3 1028.1 1028.1 0.0
22/01:00am 12.9 12.3 10.3 84 1.3 NNW 4 6 2 3 1028.4 1028.4 0.0
22/12:30am 12.9 11.8 10.1 83 1.4 N 6 7 3 4 1028.4 1028.4 0.0
22/12:00am 13.3 12.2 10.1 81 1.6 NNW 6 7 3 4 1028.6 1028.6 0.0
 
Date/Time
EST
Temp
°C
App
Temp
°C
Dew
Point
°C
Rel
Hum
%
Delta-T
°C
Wind Press
QNH
hPa
Press
MSL
hPa
Rain since
9am
mm
Dir  Spd
km/h
Gust
km/h
Spd
kts
Gust
kts
21/11:30pm 13.3 12.2 9.9 80 1.7 NNW 6 7 3 4 1028.7 1028.7 0.0
21/11:00pm 13.7 13.0 9.9 78 1.9 NNW 4 7 2 4 1029.0 1029.0 0.0
21/10:30pm 13.4 12.7 10.0 80 1.8 NNW 4 4 2 2 1029.3 1029.3 0.0
21/10:00pm 13.6 12.5 9.8 78 1.9 WNW 6 7 3 4 1029.5 1029.5 0.0
21/09:30pm 13.7 12.9 9.7 77 2.1 NW 4 7 2 4 1029.5 1029.5 0.0
21/09:00pm 14.0 12.7 9.8 76 2.1 WNW 7 9 4 5 1029.5 1029.5 0.0
21/08:30pm 13.8 13.0 9.8 77 2.1 WNW 4 7 2 4 1029.4 1029.4 0.0
21/08:00pm 14.0 13.2 9.6 75 2.2 NW 4 7 2 4 1029.6 1029.6 0.0
21/07:30pm 14.0 12.7 9.2 73 2.4 WNW 6 9 3 5 1029.6 1029.6 0.0
21/07:00pm 14.1 12.3 9.5 74 2.3 W 9 13 5 7 1029.4 1029.4 0.0
21/06:30pm 14.0 12.6 9.6 75 2.3 W 7 9 4 5 1029.2 1029.2 0.0
21/06:00pm 14.2 12.8 9.6 74 2.3 WNW 7 9 4 5 1028.9 1028.9 0.0
21/05:30pm 14.3 12.0 9.1 71 2.6 WNW 11 15 6 8 1028.8 1028.8 0.0
21/05:00pm 14.7 13.1 10.1 74 2.4 WSW 9 17 5 9 1028.7 1028.7 0.0
21/04:30pm 14.8 11.8 9.4 70 2.8 WSW 15 24 8 13 1028.8 1028.8 0.0
21/04:00pm 15.1 12.2 9.7 70 2.8 WSW 15 20 8 11 1028.8 1028.8 0.0
21/03:30pm 15.3 12.0 9.7 69 2.9 WSW 17 24 9 13 1028.8 1028.8 0.0
21/03:00pm 15.5 13.2 10.3 71 2.7 WSW 13 19 7 10 1028.8 1028.8 0.0
21/02:30pm 15.5 12.2 9.6 68 3.1 WSW 17 22 9 12 1029.1 1029.1 0.0
21/02:00pm 16.3 13.7 10.6 69 3.0 W 15 22 8 12 1029.1 1029.1 0.0
21/01:30pm 15.7 13.5 10.9 73 2.6 W 13 20 7 11 1029.3 1029.3 0.0
21/01:00pm 15.5 13.2 10.5 72 2.6 WSW 13 20 7 11 1029.6 1029.6 0.0
21/12:30pm 15.6 12.9 10.4 71 2.7 W 15 20 8 11 1030.1 1030.1 0.0
21/12:00pm 15.5 13.2 10.5 72 2.6 WNW 13 19 7 10 1030.4 1030.4 0.0
21/11:30am 15.6 12.9 10.2 70 2.8 WSW 15 19 8 10 1030.6 1030.6 0.0
21/11:00am 15.3 12.0 9.4 68 3.0 WSW 17 22 9 12 1030.8 1030.8 0.0
21/10:30am 15.2 12.5 10.2 72 2.6 W 15 20 8 11 1030.7 1030.7 0.0
21/10:00am 15.0 12.7 10.6 75 2.3 W 13 20 7 11 1030.7 1030.7 0.0
21/09:30am 14.4 13.6 11.0 80 1.8 WNW 6 13 3 7 1030.8 1030.8 0.0
21/09:00am 14.0 13.1 10.6 80 1.8 NW 6 13 3 7 1030.7 1030.7 0.0
21/08:30am 13.6 12.7 10.6 82 1.6 WNW 6 11 3 6 1030.9 1030.9 0.0
21/08:00am 13.1 12.5 10.5 84 1.3 NW 4 9 2 5 1030.7 1030.7 0.0
21/07:30am 12.7 11.7 10.2 85 1.3 NNW 6 9 3 5 1030.0 1030.0 0.0
21/07:00am 12.6 11.9 10.0 84 1.3 NW 4 7 2 4 1030.0 1030.0 0.0
21/06:30am 12.6 11.8 9.8 83 1.4 NW 4 9 2 5 1029.9 1029.9 0.0
21/06:00am 12.5 12.6 10.0 85 1.3 CALM 0 7 0 4 1029.6 1029.6 0.0
21/05:30am 12.5 11.4 10.0 85 1.3 NNW 6 9 3 5 1029.5 1029.5 0.0
21/05:00am 12.7 12.0 9.9 83 1.4 NW 4 9 2 5 1029.4 1029.4 0.0
21/04:30am 12.7 12.0 10.1 84 1.3 NNW 4 9 2 5 1029.1 1029.1 0.0
21/04:00am 12.9 12.1 9.7 81 1.6 NW 4 9 2 5 1029.0 1029.0 0.0
21/03:30am 13.1 11.9 9.5 79 1.8 NW 6 11 3 6 1029.3 1029.3 0.0
21/03:00am 13.0 11.9 10.0 82 1.5 NW 6 7 3 4 1029.7 1029.7 0.0
21/02:30am 13.7 11.9 9.6 76 2.1 WSW 9 17 5 9 1029.7 1029.7 0.0
21/02:00am 13.8 11.6 9.5 75 2.2 WSW 11 20 6 11 1029.9 1029.9 0.0
21/01:30am 13.4 11.5 8.9 74 2.3 W 9 15 5 8 1030.0 1030.0 0.0
21/01:00am 13.7 11.2 9.6 76 2.1 WSW 13 19 7 10 1030.0 1030.0 0.0
21/12:30am 12.7 11.0 9.7 82 1.5 WNW 9 17 5 9 1030.0 1030.0 0.0
21/12:00am 12.7 11.4 10.1 84 1.3 WNW 7 13 4 7 1029.9 1029.9 0.0
 
Date/Time
EST
Temp
°C
App
Temp
°C
Dew
Point
°C
Rel
Hum
%
Delta-T
°C
Wind Press
QNH
hPa
Press
MSL
hPa
Rain since
9am
mm
Dir  Spd
km/h
Gust
km/h
Spd
kts
Gust
kts
20/11:30pm 12.0 10.6 9.6 85 1.2 NNW 7 9 4 5 1030.1 1030.1 0.0
20/11:00pm 12.4 11.2 9.4 82 1.5 N 6 7 3 4 1030.2 1030.2 0.0
20/10:30pm 12.5 11.7 9.5 82 1.5 NW 4 9 2 5 1030.4 1030.4 0.0
20/10:00pm 12.5 11.5 9.0 79 1.7 NW 4 7 2 4 1030.5 1030.5 0.0
20/09:30pm 12.9 11.6 9.2 78 1.9 NW 6 11 3 6 1030.8 1030.8 0.0
20/09:00pm 12.6 12.1 9.4 81 1.6 NW 2 6 1 3 1030.8 1030.8 0.0
20/08:30pm 12.5 11.2 9.1 80 1.7 NNW 6 7 3 4 1030.8 1030.8 0.0
20/08:00pm 13.0 11.6 8.9 76 2.0 NW 6 11 3 6 1030.8 1030.8 0.0
20/07:30pm 13.2 11.7 9.1 76 2.1 WNW 7 11 4 6 1030.8 1030.8 0.0
20/07:00pm 13.5 12.0 9.0 74 2.3 WNW 7 13 4 7 1030.8 1030.8 0.0
20/06:30pm 13.8 11.9 9.0 73 2.4 WSW 9 15 5 8 1030.4 1030.4 0.0
20/06:00pm 14.1 11.8 9.1 72 2.5 WSW 11 15 6 8 1030.1 1030.1 0.0
20/05:30pm 14.2 12.3 9.2 72 2.5 WSW 9 15 5 8 1029.9 1029.9 0.0
20/05:00pm 14.4 12.5 9.2 71 2.6 WSW 9 13 5 7 1029.8 1029.8 0.0
20/04:30pm 14.9 12.7 9.3 69 2.9 SSW 11 17 6 9 1029.7 1029.7 0.0
20/04:00pm 15.0 12.7 9.1 68 3.0 WSW 11 15 6 8 1029.6 1029.6 0.0
20/03:30pm 15.7 13.6 9.6 67 3.2 SW 11 17 6 9 1029.4 1029.4 0.0
20/03:00pm 15.9 13.2 9.1 64 3.5 SW 13 17 7 9 1029.4 1029.4 0.0
20/02:30pm 16.0 13.5 9.7 66 3.3 WSW 13 19 7 10 1029.5 1029.5 0.0
20/02:00pm 15.7 12.6 8.7 63 3.5 SW 15 22 8 12 1029.9 1029.9 0.0
20/01:30pm 15.5 12.1 9.2 66 3.2 SSW 17 24 9 13 1029.9 1029.9 0.0
20/01:00pm 15.9 13.0 9.8 67 3.2 SW 15 22 8 12 1030.2 1030.2 0.0
20/12:30pm 16.3 13.3 10.6 69 3.0 SSW 17 22 9 12 1030.5 1030.5 0.0
20/12:00pm 16.0 13.6 9.9 67 3.2 SW 13 20 7 11 1030.8 1030.8 0.0

Other formats

Comma delimited format used in spreadsheet applications
http://www.bom.gov.au/fwo/IDV60801/IDV60801.94886.axf

JavaScript Object Notation format (JSON) in row-major order
http://www.bom.gov.au/fwo/IDV60801/IDV60801.94886.json

Data quality

Most of these data are generated automatically and are frequently updated. Quality checks on data are not normally performed. It is possible for incorrect values to appear. Refer to information at About Latest Weather Observations and please check the disclaimer before using these data.